Salacak — 3FBM4 — position and weather

sailwx.info

Track history (hours):
 
Tides and Currents Weather Stations Pressure Air Temp Water Temp Dewpoint Dewpoint Depression Visibility Wind Speed Wind Dir Waves Ship Positions

Salacak

Last reported at 2015-Sep-01 08:30 UTC. Time now 2015-Sep-02 02:31 UTC.
Position N 40°46' E 029°33'.

Length 126 m; draft 8.4 m.

Type: Cargo ship. MMSI: 373532000.

Date/timePositionNaut miles runAvg speedWind from/ knotsBaromVisibWave heightAir tempDewpointWater temp
2015-Sep-01 08:30N 40°46' E 029°33'6 5.9
2015-Sep-01 07:33N 40°44' E 029°26'394 8.2
2015-Aug-30 07:30N 44°10' E 037°02'1212.2
2015-Aug-30 06:33N 44°17' E 037°14'1312.8
2015-Aug-30 05:33N 44°25' E 037°28'1313.2
2015-Aug-30 04:33N 44°33' E 037°42'10 9.5
2015-Aug-30 03:33N 44°41' E 037°49'3 2.6
2015-Aug-30 02:32N 44°44' E 037°48'0 0.0
2015-Aug-30 01:32N 44°44' E 037°48'0 0.0
2015-Aug-30 00:32N 44°44' E 037°48'0 0.0
2015-Aug-29 23:32N 44°44' E 037°48'0 0.0
2015-Aug-29 22:32N 44°44' E 037°48'0 0.0
2015-Aug-29 21:32N 44°44' E 037°48'0 0.0
2015-Aug-29 20:32N 44°44' E 037°48'0 0.0
2015-Aug-29 19:32N 44°44' E 037°48'0 0.0
2015-Aug-29 18:32N 44°44' E 037°48'0 0.0
2015-Aug-29 17:32N 44°44' E 037°48'0 0.0
2015-Aug-29 16:32N 44°44' E 037°48'0 0.0
2015-Aug-29 15:32N 44°44' E 037°48'0 0.0
2015-Aug-29 14:32N 44°44' E 037°48'0 0.0
2015-Aug-29 13:32N 44°44' E 037°48'0 0.0
2015-Aug-29 12:31N 44°44' E 037°48'0 0.0
2015-Aug-29 11:31N 44°44' E 037°48'0 0.0
2015-Aug-29 10:31N 44°44' E 037°48'0 0.0
2015-Aug-29 09:31N 44°44' E 037°48'0 0.0
2015-Aug-29 08:31N 44°44' E 037°48'0 0.0
2015-Aug-29 07:31N 44°44' E 037°48'0 0.0
2015-Aug-29 06:31N 44°44' E 037°48'0 0.0
2015-Aug-29 05:31N 44°44' E 037°48'0 0.0
2015-Aug-29 04:31N 44°44' E 037°48'0 0.0
2015-Aug-29 03:31N 44°44' E 037°48'0 0.0
2015-Aug-29 02:31N 44°44' E 037°48'0 0.0
2015-Aug-29 01:31N 44°44' E 037°48'0 0.0
2015-Aug-29 00:31N 44°44' E 037°48'0 0.0
2015-Aug-28 23:31N 44°44' E 037°48'0 0.0
2015-Aug-28 22:31N 44°44' E 037°48'0 0.0
2015-Aug-28 21:31N 44°44' E 037°48'0 0.0
2015-Aug-28 20:31N 44°44' E 037°48'0 0.0
2015-Aug-28 19:31N 44°44' E 037°48'0 0.0
2015-Aug-28 18:31N 44°44' E 037°48'0 0.0
2015-Aug-28 17:31N 44°44' E 037°48'0 0.0
2015-Aug-28 16:31N 44°44' E 037°48'0 0.0
2015-Aug-28 15:31N 44°44' E 037°48'0 0.0
2015-Aug-28 14:31N 44°44' E 037°48'0 0.0
2015-Aug-28 13:31N 44°44' E 037°48'0 0.0
2015-Aug-28 12:31N 44°44' E 037°48'0 0.0
2015-Aug-28 11:31N 44°44' E 037°48'0 0.0
2015-Aug-28 10:31N 44°44' E 037°48'0 0.0
2015-Aug-28 09:31N 44°44' E 037°48'0 0.0
2015-Aug-28 08:31N 44°44' E 037°48'0 0.0
2015-Aug-28 07:31N 44°44' E 037°48'0 0.0
2015-Aug-28 06:31N 44°44' E 037°48'0 0.0
2015-Aug-26 20:18N 44°44' E 037°48'0 0.0
2015-Aug-26 19:33N 44°44' E 037°48'0 0.0
2015-Aug-26 18:32N 44°44' E 037°48'0 0.0
2015-Aug-26 17:32N 44°44' E 037°48'0 0.0
2015-Aug-26 16:32N 44°44' E 037°48'0 0.0
2015-Aug-26 15:32N 44°44' E 037°48'0 0.0
2015-Aug-26 14:32N 44°44' E 037°48'0 0.0
2015-Aug-26 13:32N 44°44' E 037°48'0 0.0
2015-Aug-26 12:32N 44°44' E 037°48'0 0.0
2015-Aug-26 11:32N 44°44' E 037°48'0 0.0
2015-Aug-26 10:32N 44°44' E 037°48'0 0.0
2015-Aug-26 09:32N 44°44' E 037°48'0 0.0
2015-Aug-26 08:32N 44°44' E 037°48'0 0.0
2015-Aug-26 07:32N 44°44' E 037°48'0 0.3
2015-Aug-26 06:33N 44°44' E 037°48'8 8.0
2015-Aug-26 05:33N 44°36' E 037°50'4 3.6
2015-Aug-26 04:32N 44°32' E 037°47'1 1.4
2015-Aug-26 03:32N 44°33' E 037°49'5 4.9
2015-Aug-26 02:33N 44°29' E 037°46'6 2.5
2015-Aug-26 00:20N 44°25' E 037°40'1 1.6
2015-Aug-25 23:26N 44°26' E 037°41'3 2.2
2015-Aug-25 22:10N 44°24' E 037°39'1 2.2
2015-Aug-25 21:31N 44°24' E 037°40'2 2.4
2015-Aug-25 20:31N 44°25' E 037°43'3 2.6
2015-Aug-25 19:31N 44°27' E 037°46'2 2.5
2015-Aug-25 18:31N 44°29' E 037°49'2 2.2
2015-Aug-25 17:31N 44°30' E 037°52'1 1.0
2015-Aug-25 16:33N 44°29' E 037°52'1010.0
2015-Aug-25 15:33N 44°22' E 037°41'4 4.1
2015-Aug-25 14:33N 44°19' E 037°38'3 3.0
2015-Aug-25 13:32N 44°20' E 037°42'3 2.3
2015-Aug-25 12:26N 44°21' E 037°45'3 2.4
2015-Aug-25 11:23N 44°23' E 037°47'2 2.2
2015-Aug-25 10:32N 44°24' E 037°49'2 2.1
2015-Aug-25 09:32N 44°26' E 037°51'2 2.0
2015-Aug-25 08:32N 44°28' E 037°52'2 2.0
2015-Aug-25 07:32N 44°30' E 037°53'2 1.8
2015-Aug-25 06:33N 44°30' E 037°51'10 9.9
2015-Aug-25 05:33N 44°27' E 037°38'1 0.6
2015-Aug-25 04:33N 44°27' E 037°38'3 2.9
2015-Aug-25 03:33N 44°27' E 037°42'3 2.6
2015-Aug-25 02:33N 44°28' E 037°45'2 2.0
2015-Aug-25 01:32N 44°29' E 037°48'2 1.9
2015-Aug-25 00:32N 44°29' E 037°51'2 1.9
2015-Aug-24 23:32N 44°30' E 037°53'0 0.5
2015-Aug-24 22:33N 44°29' E 037°54'9 2.8
2015-Aug-24 19:24N 44°22' E 037°47'2 1.7
2015-Aug-24 18:30N 44°23' E 037°48'1 1.4
2015-Aug-24 17:33N 44°24' E 037°50'1 1.0
2015-Aug-24 16:18N 44°24' E 037°51'1 1.0
2015-Aug-24 15:33N 44°25' E 037°52'1 0.9
2015-Aug-24 14:33N 44°26' E 037°53'1 1.0
2015-Aug-24 13:32N 44°27' E 037°53'1 1.3
2015-Aug-24 12:32N 44°28' E 037°54'2 1.4
2015-Aug-24 11:26N 44°29' E 037°55'2 2.6
2015-Aug-24 10:33N 44°28' E 037°53'1010.1
2015-Aug-24 09:33N 44°20' E 037°45'1 1.4
2015-Aug-24 08:32N 44°20' E 037°46'1 1.3
2015-Aug-24 07:29N 44°21' E 037°48'1 1.4
2015-Aug-24 06:29N 44°22' E 037°49'1 1.4
2015-Aug-24 05:32N 44°23' E 037°51'1 1.2
2015-Aug-24 04:29N 44°24' E 037°52'1 1.5
2015-Aug-24 03:32N 44°25' E 037°53'1 1.5
2015-Aug-24 02:32N 44°26' E 037°53'1 1.3
2015-Aug-24 01:32N 44°28' E 037°53'9 0.3
2015-Aug-22 16:32N 44°31' E 037°41'1 0.7
2015-Aug-22 15:32N 44°30' E 037°41'1 0.7
2015-Aug-22 14:32N 44°30' E 037°42'1 0.7
2015-Aug-22 13:32N 44°30' E 037°43'1 0.8
2015-Aug-22 12:26N 44°29' E 037°44'1 0.7
2015-Aug-22 11:32N 44°29' E 037°45'1 0.6
2015-Aug-22 10:32N 44°29' E 037°46'1 0.7
2015-Aug-22 09:20N 44°29' E 037°47'1 0.8
2015-Aug-22 08:32N 44°30' E 037°48'  
Track history (hours):
 
Tides and Currents Weather Stations Pressure Air Temp Water Temp Dewpoint Dewpoint Depression Visibility Wind Speed Wind Dir Waves Ship Positions

Salacak

Last reported at 2015-Sep-01 08:30 UTC. Time now 2015-Sep-02 02:31 UTC.
Position N 40°46' E 029°33'.

Length 126 m; draft 8.4 m.

Type: Cargo ship. MMSI: 373532000.

Date/timePositionNaut miles runAvg speedWind from/ knotsBaromVisibWave heightAir tempDewpointWater temp
2015-Sep-01 08:30N 40°46' E 029°33'6 5.9
2015-Sep-01 07:33N 40°44' E 029°26'394 8.2
2015-Aug-30 07:30N 44°10' E 037°02'1212.2
2015-Aug-30 06:33N 44°17' E 037°14'1312.8
2015-Aug-30 05:33N 44°25' E 037°28'1313.2
2015-Aug-30 04:33N 44°33' E 037°42'10 9.5
2015-Aug-30 03:33N 44°41' E 037°49'3 2.6
2015-Aug-30 02:32N 44°44' E 037°48'0 0.0
2015-Aug-30 01:32N 44°44' E 037°48'0 0.0
2015-Aug-30 00:32N 44°44' E 037°48'0 0.0
2015-Aug-29 23:32N 44°44' E 037°48'0 0.0
2015-Aug-29 22:32N 44°44' E 037°48'0 0.0
2015-Aug-29 21:32N 44°44' E 037°48'0 0.0
2015-Aug-29 20:32N 44°44' E 037°48'0 0.0
2015-Aug-29 19:32N 44°44' E 037°48'0 0.0
2015-Aug-29 18:32N 44°44' E 037°48'0 0.0
2015-Aug-29 17:32N 44°44' E 037°48'0 0.0
2015-Aug-29 16:32N 44°44' E 037°48'0 0.0
2015-Aug-29 15:32N 44°44' E 037°48'0 0.0
2015-Aug-29 14:32N 44°44' E 037°48'0 0.0
2015-Aug-29 13:32N 44°44' E 037°48'0 0.0
2015-Aug-29 12:31N 44°44' E 037°48'0 0.0
2015-Aug-29 11:31N 44°44' E 037°48'0 0.0
2015-Aug-29 10:31N 44°44' E 037°48'0 0.0
2015-Aug-29 09:31N 44°44' E 037°48'0 0.0
2015-Aug-29 08:31N 44°44' E 037°48'0 0.0
2015-Aug-29 07:31N 44°44' E 037°48'0 0.0
2015-Aug-29 06:31N 44°44' E 037°48'0 0.0
2015-Aug-29 05:31N 44°44' E 037°48'0 0.0
2015-Aug-29 04:31N 44°44' E 037°48'0 0.0
2015-Aug-29 03:31N 44°44' E 037°48'0 0.0
2015-Aug-29 02:31N 44°44' E 037°48'0 0.0
2015-Aug-29 01:31N 44°44' E 037°48'0 0.0
2015-Aug-29 00:31N 44°44' E 037°48'0 0.0
2015-Aug-28 23:31N 44°44' E 037°48'0 0.0
2015-Aug-28 22:31N 44°44' E 037°48'0 0.0
2015-Aug-28 21:31N 44°44' E 037°48'0 0.0
2015-Aug-28 20:31N 44°44' E 037°48'0 0.0
2015-Aug-28 19:31N 44°44' E 037°48'0 0.0
2015-Aug-28 18:31N 44°44' E 037°48'0 0.0
2015-Aug-28 17:31N 44°44' E 037°48'0 0.0
2015-Aug-28 16:31N 44°44' E 037°48'0 0.0
2015-Aug-28 15:31N 44°44' E 037°48'0 0.0
2015-Aug-28 14:31N 44°44' E 037°48'0 0.0
2015-Aug-28 13:31N 44°44' E 037°48'0 0.0
2015-Aug-28 12:31N 44°44' E 037°48'0 0.0
2015-Aug-28 11:31N 44°44' E 037°48'0 0.0
2015-Aug-28 10:31N 44°44' E 037°48'0 0.0
2015-Aug-28 09:31N 44°44' E 037°48'0 0.0
2015-Aug-28 08:31N 44°44' E 037°48'0 0.0
2015-Aug-28 07:31N 44°44' E 037°48'0 0.0
2015-Aug-28 06:31N 44°44' E 037°48'0 0.0
2015-Aug-26 20:18N 44°44' E 037°48'0 0.0
2015-Aug-26 19:33N 44°44' E 037°48'0 0.0
2015-Aug-26 18:32N 44°44' E 037°48'0 0.0
2015-Aug-26 17:32N 44°44' E 037°48'0 0.0
2015-Aug-26 16:32N 44°44' E 037°48'0 0.0
2015-Aug-26 15:32N 44°44' E 037°48'0 0.0
2015-Aug-26 14:32N 44°44' E 037°48'0 0.0
2015-Aug-26 13:32N 44°44' E 037°48'0 0.0
2015-Aug-26 12:32N 44°44' E 037°48'0 0.0
2015-Aug-26 11:32N 44°44' E 037°48'0 0.0
2015-Aug-26 10:32N 44°44' E 037°48'0 0.0
2015-Aug-26 09:32N 44°44' E 037°48'0 0.0
2015-Aug-26 08:32N 44°44' E 037°48'0 0.0
2015-Aug-26 07:32N 44°44' E 037°48'0 0.3
2015-Aug-26 06:33N 44°44' E 037°48'8 8.0
2015-Aug-26 05:33N 44°36' E 037°50'4 3.6
2015-Aug-26 04:32N 44°32' E 037°47'1 1.4
2015-Aug-26 03:32N 44°33' E 037°49'5 4.9
2015-Aug-26 02:33N 44°29' E 037°46'6 2.5
2015-Aug-26 00:20N 44°25' E 037°40'1 1.6
2015-Aug-25 23:26N 44°26' E 037°41'3 2.2
2015-Aug-25 22:10N 44°24' E 037°39'1 2.2
2015-Aug-25 21:31N 44°24' E 037°40'2 2.4
2015-Aug-25 20:31N 44°25' E 037°43'3 2.6
2015-Aug-25 19:31N 44°27' E 037°46'2 2.5
2015-Aug-25 18:31N 44°29' E 037°49'2 2.2
2015-Aug-25 17:31N 44°30' E 037°52'1 1.0
2015-Aug-25 16:33N 44°29' E 037°52'1010.0
2015-Aug-25 15:33N 44°22' E 037°41'4 4.1
2015-Aug-25 14:33N 44°19' E 037°38'3 3.0
2015-Aug-25 13:32N 44°20' E 037°42'3 2.3
2015-Aug-25 12:26N 44°21' E 037°45'3 2.4
2015-Aug-25 11:23N 44°23' E 037°47'2 2.2
2015-Aug-25 10:32N 44°24' E 037°49'2 2.1
2015-Aug-25 09:32N 44°26' E 037°51'2 2.0
2015-Aug-25 08:32N 44°28' E 037°52'2 2.0
2015-Aug-25 07:32N 44°30' E 037°53'2 1.8
2015-Aug-25 06:33N 44°30' E 037°51'10 9.9
2015-Aug-25 05:33N 44°27' E 037°38'1 0.6
2015-Aug-25 04:33N 44°27' E 037°38'3 2.9
2015-Aug-25 03:33N 44°27' E 037°42'3 2.6
2015-Aug-25 02:33N 44°28' E 037°45'2 2.0
2015-Aug-25 01:32N 44°29' E 037°48'2 1.9
2015-Aug-25 00:32N 44°29' E 037°51'2 1.9
2015-Aug-24 23:32N 44°30' E 037°53'0 0.5
2015-Aug-24 22:33N 44°29' E 037°54'9 2.8
2015-Aug-24 19:24N 44°22' E 037°47'2 1.7
2015-Aug-24 18:30N 44°23' E 037°48'1 1.4
2015-Aug-24 17:33N 44°24' E 037°50'1 1.0
2015-Aug-24 16:18N 44°24' E 037°51'1 1.0
2015-Aug-24 15:33N 44°25' E 037°52'1 0.9
2015-Aug-24 14:33N 44°26' E 037°53'1 1.0
2015-Aug-24 13:32N 44°27' E 037°53'1 1.3
2015-Aug-24 12:32N 44°28' E 037°54'2 1.4
2015-Aug-24 11:26N 44°29' E 037°55'2 2.6
2015-Aug-24 10:33N 44°28' E 037°53'1010.1
2015-Aug-24 09:33N 44°20' E 037°45'1 1.4
2015-Aug-24 08:32N 44°20' E 037°46'1 1.3
2015-Aug-24 07:29N 44°21' E 037°48'1 1.4
2015-Aug-24 06:29N 44°22' E 037°49'1 1.4
2015-Aug-24 05:32N 44°23' E 037°51'1 1.2
2015-Aug-24 04:29N 44°24' E 037°52'1 1.5
2015-Aug-24 03:32N 44°25' E 037°53'1 1.5
2015-Aug-24 02:32N 44°26' E 037°53'1 1.3
2015-Aug-24 01:32N 44°28' E 037°53'9 0.3
2015-Aug-22 16:32N 44°31' E 037°41'1 0.7
2015-Aug-22 15:32N 44°30' E 037°41'1 0.7
2015-Aug-22 14:32N 44°30' E 037°42'1 0.7
2015-Aug-22 13:32N 44°30' E 037°43'1 0.8
2015-Aug-22 12:26N 44°29' E 037°44'1 0.7
2015-Aug-22 11:32N 44°29' E 037°45'1 0.6
2015-Aug-22 10:32N 44°29' E 037°46'1 0.7
2015-Aug-22 09:20N 44°29' E 037°47'1 0.8
2015-Aug-22 08:32N 44°30' E 037°48'  

Dump ship's entire track history